sensor_id;sensor_type;location;lat;lon;timestamp;P1;durP1;ratioP1;P2;durP2;ratioP2
57217;SDS011;43078;52.972;6.482;2022-12-20T00:02:22;7.10;;;4.10;;
57217;SDS011;43078;52.972;6.482;2022-12-20T00:04:48;8.48;;;3.60;;
57217;SDS011;43078;52.972;6.482;2022-12-20T00:07:15;7.60;;;3.65;;
57217;SDS011;43078;52.972;6.482;2022-12-20T00:09:40;8.48;;;3.55;;
57217;SDS011;43078;52.972;6.482;2022-12-20T00:12:06;7.53;;;3.55;;
57217;SDS011;43078;52.972;6.482;2022-12-20T00:14:35;6.97;;;3.70;;
57217;SDS011;43078;52.972;6.482;2022-12-20T00:17:00;7.55;;;3.53;;
57217;SDS011;43078;52.972;6.482;2022-12-20T00:19:26;8.48;;;3.70;;
57217;SDS011;43078;52.972;6.482;2022-12-20T00:21:55;5.68;;;3.05;;
57217;SDS011;43078;52.972;6.482;2022-12-20T00:24:20;7.40;;;3.80;;
57217;SDS011;43078;52.972;6.482;2022-12-20T00:26:46;8.48;;;3.55;;
57217;SDS011;43078;52.972;6.482;2022-12-20T00:29:11;7.75;;;3.53;;
57217;SDS011;43078;52.972;6.482;2022-12-20T00:34:35;6.28;;;3.33;;
57217;SDS011;43078;52.972;6.482;2022-12-20T00:37:00;7.88;;;3.63;;
57217;SDS011;43078;52.972;6.482;2022-12-20T00:39:32;7.80;;;3.30;;
57217;SDS011;43078;52.972;6.482;2022-12-20T00:41:57;6.32;;;3.40;;
57217;SDS011;43078;52.972;6.482;2022-12-20T00:44:35;6.75;;;3.40;;
57217;SDS011;43078;52.972;6.482;2022-12-20T00:47:07;6.38;;;3.00;;
57217;SDS011;43078;52.972;6.482;2022-12-20T00:49:35;6.18;;;3.50;;
57217;SDS011;43078;52.972;6.482;2022-12-20T00:52:01;7.90;;;3.83;;
57217;SDS011;43078;52.972;6.482;2022-12-20T00:54:26;8.95;;;3.40;;
57217;SDS011;43078;52.972;6.482;2022-12-20T00:56:52;9.05;;;3.42;;
57217;SDS011;43078;52.972;6.482;2022-12-20T00:59:18;7.78;;;3.58;;
57217;SDS011;43078;52.972;6.482;2022-12-20T01:01:53;8.02;;;3.20;;
57217;SDS011;43078;52.972;6.482;2022-12-20T01:04:19;6.63;;;3.20;;
57217;SDS011;43078;52.972;6.482;2022-12-20T01:06:45;6.68;;;3.20;;
57217;SDS011;43078;52.972;6.482;2022-12-20T01:09:11;7.85;;;3.22;;
57217;SDS011;43078;52.972;6.482;2022-12-20T01:11:52;7.15;;;3.05;;
57217;SDS011;43078;52.972;6.482;2022-12-20T01:14:17;6.65;;;3.13;;
57217;SDS011;43078;52.972;6.482;2022-12-20T01:16:44;6.40;;;3.13;;
57217;SDS011;43078;52.972;6.482;2022-12-20T01:19:11;5.38;;;2.72;;
57217;SDS011;43078;52.972;6.482;2022-12-20T01:21:38;9.20;;;3.05;;
57217;SDS011;43078;52.972;6.482;2022-12-20T01:24:09;7.72;;;3.58;;
57217;SDS011;43078;52.972;6.482;2022-12-20T01:26:35;6.32;;;3.17;;
57217;SDS011;43078;52.972;6.482;2022-12-20T01:29:02;8.98;;;3.38;;
57217;SDS011;43078;52.972;6.482;2022-12-20T01:31:28;8.35;;;3.10;;
57217;SDS011;43078;52.972;6.482;2022-12-20T01:33:54;6.03;;;3.10;;
57217;SDS011;43078;52.972;6.482;2022-12-20T01:36:31;6.53;;;3.38;;
57217;SDS011;43078;52.972;6.482;2022-12-20T01:39:10;6.63;;;3.20;;
57217;SDS011;43078;52.972;6.482;2022-12-20T01:41:54;6.65;;;2.67;;
57217;SDS011;43078;52.972;6.482;2022-12-20T01:46:48;7.30;;;3.17;;
57217;SDS011;43078;52.972;6.482;2022-12-20T01:49:25;6.10;;;3.05;;
57217;SDS011;43078;52.972;6.482;2022-12-20T01:57:59;6.45;;;2.80;;
57217;SDS011;43078;52.972;6.482;2022-12-20T02:03:02;7.47;;;3.20;;
57217;SDS011;43078;52.972;6.482;2022-12-20T02:05:39;6.45;;;2.97;;
57217;SDS011;43078;52.972;6.482;2022-12-20T02:08:07;6.88;;;3.00;;
57217;SDS011;43078;52.972;6.482;2022-12-20T02:10:40;6.88;;;3.00;;
57217;SDS011;43078;52.972;6.482;2022-12-20T02:13:58;8.27;;;3.03;;
57217;SDS011;43078;52.972;6.482;2022-12-20T02:16:24;5.50;;;2.65;;
57217;SDS011;43078;52.972;6.482;2022-12-20T02:21:47;5.75;;;2.90;;
57217;SDS011;43078;52.972;6.482;2022-12-20T02:27:40;6.67;;;2.77;;
57217;SDS011;43078;52.972;6.482;2022-12-20T02:30:21;7.70;;;2.88;;
57217;SDS011;43078;52.972;6.482;2022-12-20T02:35:31;7.40;;;3.15;;
57217;SDS011;43078;52.972;6.482;2022-12-20T02:38:03;6.30;;;2.88;;
57217;SDS011;43078;52.972;6.482;2022-12-20T02:40:48;5.15;;;2.63;;
57217;SDS011;43078;52.972;6.482;2022-12-20T02:43:19;5.63;;;2.70;;
57217;SDS011;43078;52.972;6.482;2022-12-20T02:46:29;6.47;;;2.58;;
57217;SDS011;43078;52.972;6.482;2022-12-20T02:49:49;6.78;;;2.72;;
57217;SDS011;43078;52.972;6.482;2022-12-20T02:52:20;6.80;;;2.90;;
57217;SDS011;43078;52.972;6.482;2022-12-20T02:54:53;8.05;;;3.10;;
57217;SDS011;43078;52.972;6.482;2022-12-20T03:00:43;8.90;;;3.17;;
57217;SDS011;43078;52.972;6.482;2022-12-20T03:03:15;7.22;;;2.97;;
57217;SDS011;43078;52.972;6.482;2022-12-20T03:06:03;8.00;;;3.10;;
57217;SDS011;43078;52.972;6.482;2022-12-20T03:08:29;7.88;;;3.30;;
57217;SDS011;43078;52.972;6.482;2022-12-20T03:10:55;7.35;;;3.05;;
57217;SDS011;43078;52.972;6.482;2022-12-20T03:13:22;8.82;;;3.13;;
57217;SDS011;43078;52.972;6.482;2022-12-20T03:15:48;8.50;;;3.40;;
57217;SDS011;43078;52.972;6.482;2022-12-20T03:18:14;5.65;;;3.22;;
57217;SDS011;43078;52.972;6.482;2022-12-20T03:20:39;7.82;;;3.15;;
57217;SDS011;43078;52.972;6.482;2022-12-20T03:23:05;8.38;;;3.15;;
57217;SDS011;43078;52.972;6.482;2022-12-20T03:25:31;8.82;;;3.22;;
57217;SDS011;43078;52.972;6.482;2022-12-20T03:27:59;8.10;;;3.50;;
57217;SDS011;43078;52.972;6.482;2022-12-20T03:30:26;7.85;;;2.97;;
57217;SDS011;43078;52.972;6.482;2022-12-20T03:32:54;9.40;;;3.35;;
57217;SDS011;43078;52.972;6.482;2022-12-20T03:35:23;7.32;;;3.33;;
57217;SDS011;43078;52.972;6.482;2022-12-20T03:37:49;7.75;;;3.05;;
57217;SDS011;43078;52.972;6.482;2022-12-20T03:40:15;8.73;;;3.00;;
57217;SDS011;43078;52.972;6.482;2022-12-20T03:42:40;8.52;;;3.72;;
57217;SDS011;43078;52.972;6.482;2022-12-20T03:45:07;7.35;;;3.08;;
57217;SDS011;43078;52.972;6.482;2022-12-20T03:47:35;9.20;;;3.40;;
57217;SDS011;43078;52.972;6.482;2022-12-20T03:50:01;6.68;;;3.25;;
57217;SDS011;43078;52.972;6.482;2022-12-20T03:52:26;7.22;;;3.47;;
57217;SDS011;43078;52.972;6.482;2022-12-20T03:54:52;7.10;;;3.00;;
57217;SDS011;43078;52.972;6.482;2022-12-20T03:57:21;6.65;;;3.10;;
57217;SDS011;43078;52.972;6.482;2022-12-20T03:59:47;9.45;;;3.53;;
57217;SDS011;43078;52.972;6.482;2022-12-20T04:02:14;6.47;;;3.30;;
57217;SDS011;43078;52.972;6.482;2022-12-20T04:04:40;6.68;;;3.15;;
57217;SDS011;43078;52.972;6.482;2022-12-20T04:07:05;9.18;;;3.80;;
57217;SDS011;43078;52.972;6.482;2022-12-20T04:09:31;5.63;;;3.20;;
57217;SDS011;43078;52.972;6.482;2022-12-20T04:12:07;7.03;;;3.45;;
57217;SDS011;43078;52.972;6.482;2022-12-20T04:14:35;7.05;;;3.60;;
57217;SDS011;43078;52.972;6.482;2022-12-20T04:17:01;8.13;;;3.00;;
57217;SDS011;43078;52.972;6.482;2022-12-20T04:19:37;7.90;;;3.72;;
57217;SDS011;43078;52.972;6.482;2022-12-20T04:22:05;7.20;;;3.67;;
57217;SDS011;43078;52.972;6.482;2022-12-20T04:24:50;6.90;;;3.30;;
57217;SDS011;43078;52.972;6.482;2022-12-20T04:30:16;7.63;;;3.60;;
57217;SDS011;43078;52.972;6.482;2022-12-20T04:32:41;6.88;;;3.58;;
57217;SDS011;43078;52.972;6.482;2022-12-20T04:35:07;7.53;;;3.72;;
57217;SDS011;43078;52.972;6.482;2022-12-20T04:37:37;8.02;;;3.92;;
57217;SDS011;43078;52.972;6.482;2022-12-20T04:40:06;7.55;;;3.67;;
57217;SDS011;43078;52.972;6.482;2022-12-20T04:42:33;6.40;;;3.40;;
57217;SDS011;43078;52.972;6.482;2022-12-20T04:44:59;7.07;;;3.55;;
57217;SDS011;43078;52.972;6.482;2022-12-20T04:47:28;6.65;;;3.83;;
57217;SDS011;43078;52.972;6.482;2022-12-20T04:49:59;8.40;;;3.70;;
57217;SDS011;43078;52.972;6.482;2022-12-20T04:52:25;8.00;;;4.07;;
57217;SDS011;43078;52.972;6.482;2022-12-20T04:55:09;8.27;;;3.80;;
57217;SDS011;43078;52.972;6.482;2022-12-20T04:57:35;8.25;;;3.78;;
57217;SDS011;43078;52.972;6.482;2022-12-20T05:00:00;7.20;;;3.65;;
57217;SDS011;43078;52.972;6.482;2022-12-20T05:02:26;7.82;;;3.80;;
57217;SDS011;43078;52.972;6.482;2022-12-20T05:04:52;8.10;;;3.85;;
57217;SDS011;43078;52.972;6.482;2022-12-20T05:07:17;7.30;;;3.70;;
57217;SDS011;43078;52.972;6.482;2022-12-20T05:09:43;9.38;;;3.92;;
57217;SDS011;43078;52.972;6.482;2022-12-20T05:12:09;6.68;;;3.40;;
57217;SDS011;43078;52.972;6.482;2022-12-20T05:14:34;8.63;;;3.95;;
57217;SDS011;43078;52.972;6.482;2022-12-20T05:17:00;7.00;;;3.40;;
57217;SDS011;43078;52.972;6.482;2022-12-20T05:19:28;7.72;;;3.90;;
57217;SDS011;43078;52.972;6.482;2022-12-20T05:21:54;7.28;;;3.85;;
57217;SDS011;43078;52.972;6.482;2022-12-20T05:24:50;9.40;;;3.70;;
57217;SDS011;43078;52.972;6.482;2022-12-20T05:27:41;7.25;;;3.63;;
57217;SDS011;43078;52.972;6.482;2022-12-20T05:30:08;7.68;;;3.40;;
57217;SDS011;43078;52.972;6.482;2022-12-20T05:32:52;6.72;;;3.35;;
57217;SDS011;43078;52.972;6.482;2022-12-20T05:38:14;8.30;;;3.50;;
57217;SDS011;43078;52.972;6.482;2022-12-20T05:40:39;10.75;;;3.25;;
57217;SDS011;43078;52.972;6.482;2022-12-20T05:43:05;8.07;;;3.35;;
57217;SDS011;43078;52.972;6.482;2022-12-20T05:45:31;7.47;;;3.45;;
57217;SDS011;43078;52.972;6.482;2022-12-20T05:47:57;9.63;;;3.72;;
57217;SDS011;43078;52.972;6.482;2022-12-20T05:50:23;8.15;;;3.13;;
57217;SDS011;43078;52.972;6.482;2022-12-20T05:52:49;6.28;;;3.25;;
57217;SDS011;43078;52.972;6.482;2022-12-20T05:55:14;8.75;;;3.15;;
57217;SDS011;43078;52.972;6.482;2022-12-20T05:57:40;7.80;;;3.28;;
57217;SDS011;43078;52.972;6.482;2022-12-20T06:00:06;6.78;;;3.10;;
57217;SDS011;43078;52.972;6.482;2022-12-20T06:02:33;8.38;;;3.50;;
57217;SDS011;43078;52.972;6.482;2022-12-20T06:04:59;6.38;;;3.00;;
57217;SDS011;43078;52.972;6.482;2022-12-20T06:07:25;8.27;;;3.15;;
57217;SDS011;43078;52.972;6.482;2022-12-20T06:09:53;7.10;;;3.00;;
57217;SDS011;43078;52.972;6.482;2022-12-20T06:12:19;5.82;;;2.85;;
57217;SDS011;43078;52.972;6.482;2022-12-20T06:14:45;6.95;;;2.90;;
57217;SDS011;43078;52.972;6.482;2022-12-20T06:17:10;8.38;;;3.20;;
57217;SDS011;43078;52.972;6.482;2022-12-20T06:19:36;5.47;;;2.95;;
57217;SDS011;43078;52.972;6.482;2022-12-20T06:22:05;7.75;;;3.10;;
57217;SDS011;43078;52.972;6.482;2022-12-20T06:24:33;5.70;;;2.92;;
57217;SDS011;43078;52.972;6.482;2022-12-20T06:27:03;8.18;;;3.28;;
57217;SDS011;43078;52.972;6.482;2022-12-20T06:29:30;8.45;;;3.28;;
57217;SDS011;43078;52.972;6.482;2022-12-20T06:31:57;7.13;;;2.72;;
57217;SDS011;43078;52.972;6.482;2022-12-20T06:34:23;6.22;;;2.95;;
57217;SDS011;43078;52.972;6.482;2022-12-20T06:36:48;6.97;;;3.42;;
57217;SDS011;43078;52.972;6.482;2022-12-20T06:39:14;6.85;;;3.25;;
57217;SDS011;43078;52.972;6.482;2022-12-20T06:41:40;5.43;;;3.40;;
57217;SDS011;43078;52.972;6.482;2022-12-20T06:44:06;6.72;;;3.40;;
57217;SDS011;43078;52.972;6.482;2022-12-20T06:46:32;6.00;;;3.40;;
57217;SDS011;43078;52.972;6.482;2022-12-20T06:48:58;6.05;;;3.60;;
57217;SDS011;43078;52.972;6.482;2022-12-20T06:51:23;9.82;;;3.90;;
57217;SDS011;43078;52.972;6.482;2022-12-20T06:53:49;7.78;;;3.50;;
57217;SDS011;43078;52.972;6.482;2022-12-20T06:56:15;7.88;;;4.07;;
57217;SDS011;43078;52.972;6.482;2022-12-20T06:58:41;7.82;;;4.18;;
57217;SDS011;43078;52.972;6.482;2022-12-20T07:01:07;7.88;;;4.35;;
57217;SDS011;43078;52.972;6.482;2022-12-20T07:03:32;7.78;;;4.45;;
57217;SDS011;43078;52.972;6.482;2022-12-20T07:05:58;7.07;;;3.65;;
57217;SDS011;43078;52.972;6.482;2022-12-20T07:08:24;13.63;;;4.32;;
57217;SDS011;43078;52.972;6.482;2022-12-20T07:10:50;8.13;;;4.63;;
57217;SDS011;43078;52.972;6.482;2022-12-20T07:13:19;9.15;;;4.63;;
57217;SDS011;43078;52.972;6.482;2022-12-20T07:15:44;7.75;;;4.72;;
57217;SDS011;43078;52.972;6.482;2022-12-20T07:18:10;8.70;;;4.75;;
57217;SDS011;43078;52.972;6.482;2022-12-20T07:20:36;9.80;;;5.18;;
57217;SDS011;43078;52.972;6.482;2022-12-20T07:23:02;8.48;;;5.00;;
57217;SDS011;43078;52.972;6.482;2022-12-20T07:25:27;9.23;;;4.80;;
57217;SDS011;43078;52.972;6.482;2022-12-20T07:27:53;9.52;;;5.28;;
57217;SDS011;43078;52.972;6.482;2022-12-20T07:30:19;12.55;;;7.22;;
57217;SDS011;43078;52.972;6.482;2022-12-20T07:32:47;11.98;;;6.57;;
57217;SDS011;43078;52.972;6.482;2022-12-20T07:35:14;12.27;;;5.80;;
57217;SDS011;43078;52.972;6.482;2022-12-20T07:37:40;7.55;;;5.03;;
57217;SDS011;43078;52.972;6.482;2022-12-20T07:40:06;8.98;;;5.07;;
57217;SDS011;43078;52.972;6.482;2022-12-20T07:42:33;8.60;;;5.03;;
57217;SDS011;43078;52.972;6.482;2022-12-20T07:44:59;8.73;;;5.18;;
57217;SDS011;43078;52.972;6.482;2022-12-20T07:47:25;8.73;;;5.20;;
57217;SDS011;43078;52.972;6.482;2022-12-20T07:49:50;9.73;;;5.05;;
57217;SDS011;43078;52.972;6.482;2022-12-20T07:52:17;8.35;;;4.78;;
57217;SDS011;43078;52.972;6.482;2022-12-20T07:54:49;10.13;;;5.00;;
57217;SDS011;43078;52.972;6.482;2022-12-20T07:57:20;8.60;;;5.10;;
57217;SDS011;43078;52.972;6.482;2022-12-20T07:59:53;9.05;;;4.82;;
57217;SDS011;43078;52.972;6.482;2022-12-20T08:02:22;7.57;;;4.53;;
57217;SDS011;43078;52.972;6.482;2022-12-20T08:05:09;8.45;;;4.30;;
57217;SDS011;43078;52.972;6.482;2022-12-20T08:07:35;8.80;;;4.40;;
57217;SDS011;43078;52.972;6.482;2022-12-20T08:10:04;7.70;;;4.55;;
57217;SDS011;43078;52.972;6.482;2022-12-20T08:12:32;9.60;;;4.50;;
57217;SDS011;43078;52.972;6.482;2022-12-20T08:14:58;10.18;;;4.65;;
57217;SDS011;43078;52.972;6.482;2022-12-20T08:17:23;7.72;;;4.35;;
57217;SDS011;43078;52.972;6.482;2022-12-20T08:19:49;8.02;;;4.07;;
57217;SDS011;43078;52.972;6.482;2022-12-20T08:22:18;8.25;;;3.53;;
57217;SDS011;43078;52.972;6.482;2022-12-20T08:24:44;6.93;;;4.00;;
57217;SDS011;43078;52.972;6.482;2022-12-20T08:27:10;6.75;;;3.90;;
57217;SDS011;43078;52.972;6.482;2022-12-20T08:29:36;6.07;;;3.33;;
57217;SDS011;43078;52.972;6.482;2022-12-20T08:32:02;7.53;;;3.80;;
57217;SDS011;43078;52.972;6.482;2022-12-20T08:34:27;7.18;;;3.42;;
57217;SDS011;43078;52.972;6.482;2022-12-20T08:36:54;8.07;;;3.55;;
57217;SDS011;43078;52.972;6.482;2022-12-20T08:39:19;7.13;;;3.58;;
57217;SDS011;43078;52.972;6.482;2022-12-20T08:41:45;8.02;;;3.42;;
57217;SDS011;43078;52.972;6.482;2022-12-20T08:44:11;9.80;;;3.53;;
57217;SDS011;43078;52.972;6.482;2022-12-20T08:46:37;6.63;;;3.58;;
57217;SDS011;43078;52.972;6.482;2022-12-20T08:49:03;7.15;;;2.80;;
57217;SDS011;43078;52.972;6.482;2022-12-20T08:51:29;8.18;;;3.20;;
57217;SDS011;43078;52.972;6.482;2022-12-20T08:53:55;8.82;;;3.78;;
57217;SDS011;43078;52.972;6.482;2022-12-20T08:56:21;8.95;;;3.60;;
57217;SDS011;43078;52.972;6.482;2022-12-20T08:58:47;8.45;;;3.40;;
57217;SDS011;43078;52.972;6.482;2022-12-20T09:01:14;7.82;;;3.00;;
57217;SDS011;43078;52.972;6.482;2022-12-20T09:03:42;6.55;;;3.22;;
57217;SDS011;43078;52.972;6.482;2022-12-20T09:06:12;9.00;;;3.65;;
57217;SDS011;43078;52.972;6.482;2022-12-20T09:08:40;6.93;;;3.38;;
57217;SDS011;43078;52.972;6.482;2022-12-20T09:11:07;7.93;;;2.80;;
57217;SDS011;43078;52.972;6.482;2022-12-20T09:13:34;7.03;;;3.10;;
57217;SDS011;43078;52.972;6.482;2022-12-20T09:16:01;8.73;;;3.00;;
57217;SDS011;43078;52.972;6.482;2022-12-20T09:18:28;4.80;;;2.50;;
57217;SDS011;43078;52.972;6.482;2022-12-20T09:20:54;5.72;;;2.65;;
57217;SDS011;43078;52.972;6.482;2022-12-20T09:23:24;5.45;;;2.88;;
57217;SDS011;43078;52.972;6.482;2022-12-20T09:25:50;7.13;;;2.65;;
57217;SDS011;43078;52.972;6.482;2022-12-20T09:28:15;6.53;;;2.53;;
57217;SDS011;43078;52.972;6.482;2022-12-20T09:30:41;6.57;;;2.60;;
57217;SDS011;43078;52.972;6.482;2022-12-20T09:33:07;6.10;;;2.47;;
57217;SDS011;43078;52.972;6.482;2022-12-20T09:35:32;6.00;;;2.67;;
57217;SDS011;43078;52.972;6.482;2022-12-20T09:37:58;6.70;;;2.70;;
57217;SDS011;43078;52.972;6.482;2022-12-20T09:40:25;8.95;;;2.55;;
57217;SDS011;43078;52.972;6.482;2022-12-20T09:42:56;7.72;;;2.72;;
57217;SDS011;43078;52.972;6.482;2022-12-20T09:45:27;6.45;;;2.58;;
57217;SDS011;43078;52.972;6.482;2022-12-20T09:47:56;6.15;;;2.42;;
57217;SDS011;43078;52.972;6.482;2022-12-20T09:50:31;5.85;;;2.40;;
57217;SDS011;43078;52.972;6.482;2022-12-20T09:53:13;6.43;;;2.28;;
57217;SDS011;43078;52.972;6.482;2022-12-20T09:56:14;5.90;;;2.35;;
57217;SDS011;43078;52.972;6.482;2022-12-20T09:59:13;6.03;;;2.30;;
57217;SDS011;43078;52.972;6.482;2022-12-20T10:01:43;8.27;;;2.90;;
57217;SDS011;43078;52.972;6.482;2022-12-20T10:17:11;6.50;;;2.60;;
57217;SDS011;43078;52.972;6.482;2022-12-20T10:22:42;5.75;;;2.47;;
57217;SDS011;43078;52.972;6.482;2022-12-20T10:25:25;10.68;;;6.15;;
57217;SDS011;43078;52.972;6.482;2022-12-20T10:27:56;6.82;;;2.90;;
57217;SDS011;43078;52.972;6.482;2022-12-20T10:30:25;7.15;;;2.70;;
57217;SDS011;43078;52.972;6.482;2022-12-20T10:32:52;7.38;;;2.70;;
57217;SDS011;43078;52.972;6.482;2022-12-20T10:35:21;8.13;;;2.95;;
57217;SDS011;43078;52.972;6.482;2022-12-20T10:38:01;5.57;;;2.78;;
57217;SDS011;43078;52.972;6.482;2022-12-20T10:40:33;6.72;;;2.78;;
57217;SDS011;43078;52.972;6.482;2022-12-20T10:43:04;7.32;;;3.20;;
57217;SDS011;43078;52.972;6.482;2022-12-20T10:48:04;8.27;;;2.88;;
57217;SDS011;43078;52.972;6.482;2022-12-20T10:50:54;6.25;;;2.85;;
57217;SDS011;43078;52.972;6.482;2022-12-20T10:53:28;5.95;;;2.60;;
57217;SDS011;43078;52.972;6.482;2022-12-20T10:56:08;8.40;;;2.92;;
57217;SDS011;43078;52.972;6.482;2022-12-20T10:59:38;8.80;;;3.08;;
57217;SDS011;43078;52.972;6.482;2022-12-20T11:01:39;7.00;;;2.63;;
57217;SDS011;43078;52.972;6.482;2022-12-20T11:07:01;7.38;;;2.50;;
57217;SDS011;43078;52.972;6.482;2022-12-20T11:12:10;6.63;;;2.67;;
57217;SDS011;43078;52.972;6.482;2022-12-20T11:14:38;6.43;;;2.70;;
57217;SDS011;43078;52.972;6.482;2022-12-20T11:17:14;6.93;;;3.10;;
57217;SDS011;43078;52.972;6.482;2022-12-20T11:36:02;6.22;;;2.72;;
57217;SDS011;43078;52.972;6.482;2022-12-20T11:50:03;6.10;;;2.67;;
57217;SDS011;43078;52.972;6.482;2022-12-20T11:52:46;8.48;;;2.25;;
57217;SDS011;43078;52.972;6.482;2022-12-20T11:55:19;4.57;;;2.40;;
57217;SDS011;43078;52.972;6.482;2022-12-20T12:00:26;6.18;;;2.65;;
57217;SDS011;43078;52.972;6.482;2022-12-20T12:03:01;7.70;;;2.75;;
57217;SDS011;43078;52.972;6.482;2022-12-20T12:05:44;7.30;;;2.47;;
57217;SDS011;43078;52.972;6.482;2022-12-20T12:08:33;6.97;;;3.53;;
57217;SDS011;43078;52.972;6.482;2022-12-20T12:11:21;13.57;;;6.05;;
57217;SDS011;43078;52.972;6.482;2022-12-20T12:13:51;15.52;;;8.75;;
57217;SDS011;43078;52.972;6.482;2022-12-20T12:18:49;9.63;;;3.20;;
57217;SDS011;43078;52.972;6.482;2022-12-20T12:21:21;6.55;;;3.20;;
57217;SDS011;43078;52.972;6.482;2022-12-20T12:26:34;9.02;;;3.75;;
57217;SDS011;43078;52.972;6.482;2022-12-20T12:29:04;7.95;;;3.28;;
57217;SDS011;43078;52.972;6.482;2022-12-20T12:34:27;7.18;;;3.50;;
57217;SDS011;43078;52.972;6.482;2022-12-20T12:48:33;7.53;;;3.40;;
57217;SDS011;43078;52.972;6.482;2022-12-20T12:50:55;8.27;;;3.40;;
57217;SDS011;43078;52.972;6.482;2022-12-20T13:11:55;6.15;;;3.55;;
57217;SDS011;43078;52.972;6.482;2022-12-20T13:16:52;9.70;;;4.78;;
57217;SDS011;43078;52.972;6.482;2022-12-20T13:19:38;9.80;;;4.32;;
57217;SDS011;43078;52.972;6.482;2022-12-20T13:25:02;6.65;;;3.95;;
57217;SDS011;43078;52.972;6.482;2022-12-20T13:27:48;7.53;;;3.88;;
57217;SDS011;43078;52.972;6.482;2022-12-20T13:40:38;14.57;;;6.47;;
57217;SDS011;43078;52.972;6.482;2022-12-20T13:43:24;10.48;;;7.05;;
57217;SDS011;43078;52.972;6.482;2022-12-20T13:51:12;9.70;;;7.13;;
57217;SDS011;43078;52.972;6.482;2022-12-20T13:54:03;9.00;;;5.43;;
57217;SDS011;43078;52.972;6.482;2022-12-20T13:56:41;8.45;;;5.15;;
57217;SDS011;43078;52.972;6.482;2022-12-20T14:01:49;7.65;;;4.85;;
57217;SDS011;43078;52.972;6.482;2022-12-20T14:04:20;9.30;;;4.70;;
57217;SDS011;43078;52.972;6.482;2022-12-20T14:06:50;7.97;;;4.90;;
57217;SDS011;43078;52.972;6.482;2022-12-20T14:09:32;7.93;;;4.95;;
57217;SDS011;43078;52.972;6.482;2022-12-20T14:12:04;8.77;;;4.95;;
57217;SDS011;43078;52.972;6.482;2022-12-20T14:14:44;7.78;;;4.75;;
57217;SDS011;43078;52.972;6.482;2022-12-20T14:20:06;9.48;;;5.70;;
57217;SDS011;43078;52.972;6.482;2022-12-20T14:22:37;7.43;;;5.60;;
57217;SDS011;43078;52.972;6.482;2022-12-20T14:25:27;8.80;;;5.55;;
57217;SDS011;43078;52.972;6.482;2022-12-20T14:28:49;8.18;;;5.15;;
57217;SDS011;43078;52.972;6.482;2022-12-20T14:31:01;8.98;;;5.45;;
57217;SDS011;43078;52.972;6.482;2022-12-20T14:36:06;7.53;;;5.88;;
57217;SDS011;43078;52.972;6.482;2022-12-20T14:38:47;9.88;;;5.95;;
57217;SDS011;43078;52.972;6.482;2022-12-20T14:43:57;8.15;;;6.10;;
57217;SDS011;43078;52.972;6.482;2022-12-20T14:46:26;10.50;;;6.55;;
57217;SDS011;43078;52.972;6.482;2022-12-20T14:49:56;8.10;;;5.35;;
57217;SDS011;43078;52.972;6.482;2022-12-20T14:52:03;10.65;;;7.35;;
57217;SDS011;43078;52.972;6.482;2022-12-20T14:54:41;11.30;;;7.05;;
57217;SDS011;43078;52.972;6.482;2022-12-20T15:02:38;10.35;;;7.32;;
57217;SDS011;43078;52.972;6.482;2022-12-20T15:13:43;11.02;;;9.43;;
57217;SDS011;43078;52.972;6.482;2022-12-20T15:16:20;11.18;;;9.45;;
57217;SDS011;43078;52.972;6.482;2022-12-20T15:18:51;10.95;;;8.45;;
57217;SDS011;43078;52.972;6.482;2022-12-20T15:21:28;12.95;;;9.32;;
57217;SDS011;43078;52.972;6.482;2022-12-20T15:24:00;12.02;;;8.73;;
57217;SDS011;43078;52.972;6.482;2022-12-20T15:26:31;13.82;;;10.25;;
57217;SDS011;43078;52.972;6.482;2022-12-20T15:28:57;11.18;;;9.25;;
57217;SDS011;43078;52.972;6.482;2022-12-20T15:31:23;16.20;;;9.20;;
57217;SDS011;43078;52.972;6.482;2022-12-20T15:33:51;12.00;;;9.63;;
57217;SDS011;43078;52.972;6.482;2022-12-20T15:36:22;11.43;;;10.20;;
57217;SDS011;43078;52.972;6.482;2022-12-20T15:38:53;12.13;;;9.88;;
57217;SDS011;43078;52.972;6.482;2022-12-20T15:41:22;13.50;;;10.38;;
57217;SDS011;43078;52.972;6.482;2022-12-20T15:43:59;11.57;;;9.73;;
57217;SDS011;43078;52.972;6.482;2022-12-20T15:46:30;13.35;;;10.60;;
57217;SDS011;43078;52.972;6.482;2022-12-20T15:48:56;12.85;;;10.77;;
57217;SDS011;43078;52.972;6.482;2022-12-20T15:51:35;13.35;;;11.43;;
57217;SDS011;43078;52.972;6.482;2022-12-20T15:54:05;12.35;;;11.05;;
57217;SDS011;43078;52.972;6.482;2022-12-20T15:56:38;14.43;;;11.95;;
57217;SDS011;43078;52.972;6.482;2022-12-20T15:59:03;13.50;;;11.35;;
57217;SDS011;43078;52.972;6.482;2022-12-20T16:01:36;14.43;;;12.68;;
57217;SDS011;43078;52.972;6.482;2022-12-20T16:04:04;15.07;;;11.23;;
57217;SDS011;43078;52.972;6.482;2022-12-20T16:06:31;15.07;;;12.52;;
57217;SDS011;43078;52.972;6.482;2022-12-20T16:08:57;13.05;;;11.57;;
57217;SDS011;43078;52.972;6.482;2022-12-20T16:11:24;16.83;;;12.23;;
57217;SDS011;43078;52.972;6.482;2022-12-20T16:13:52;13.98;;;12.48;;
57217;SDS011;43078;52.972;6.482;2022-12-20T16:16:26;13.68;;;12.10;;
57217;SDS011;43078;52.972;6.482;2022-12-20T16:18:53;15.02;;;13.43;;
57217;SDS011;43078;52.972;6.482;2022-12-20T16:21:46;15.55;;;12.30;;
57217;SDS011;43078;52.972;6.482;2022-12-20T16:24:14;18.45;;;14.60;;
57217;SDS011;43078;52.972;6.482;2022-12-20T16:26:42;19.70;;;16.73;;
57217;SDS011;43078;52.972;6.482;2022-12-20T16:29:08;16.15;;;14.45;;
57217;SDS011;43078;52.972;6.482;2022-12-20T16:31:35;16.67;;;14.63;;
57217;SDS011;43078;52.972;6.482;2022-12-20T16:34:04;16.83;;;13.80;;
57217;SDS011;43078;52.972;6.482;2022-12-20T16:36:31;16.15;;;13.98;;
57217;SDS011;43078;52.972;6.482;2022-12-20T16:38:57;13.48;;;11.93;;
57217;SDS011;43078;52.972;6.482;2022-12-20T16:41:25;14.25;;;11.77;;
57217;SDS011;43078;52.972;6.482;2022-12-20T16:43:52;16.40;;;13.35;;
57217;SDS011;43078;52.972;6.482;2022-12-20T16:46:20;16.58;;;14.48;;
57217;SDS011;43078;52.972;6.482;2022-12-20T16:48:47;16.63;;;12.57;;
57217;SDS011;43078;52.972;6.482;2022-12-20T16:53:53;18.30;;;13.55;;
57217;SDS011;43078;52.972;6.482;2022-12-20T16:56:24;16.35;;;14.40;;
57217;SDS011;43078;52.972;6.482;2022-12-20T16:58:50;17.05;;;14.55;;
57217;SDS011;43078;52.972;6.482;2022-12-20T17:01:20;19.20;;;14.57;;
57217;SDS011;43078;52.972;6.482;2022-12-20T17:03:48;23.00;;;16.48;;
57217;SDS011;43078;52.972;6.482;2022-12-20T17:06:16;17.95;;;15.30;;
57217;SDS011;43078;52.972;6.482;2022-12-20T17:08:43;18.08;;;15.35;;
57217;SDS011;43078;52.972;6.482;2022-12-20T17:11:22;20.23;;;17.33;;
57217;SDS011;43078;52.972;6.482;2022-12-20T17:13:50;17.55;;;14.35;;
57217;SDS011;43078;52.972;6.482;2022-12-20T17:16:18;22.25;;;17.50;;
57217;SDS011;43078;52.972;6.482;2022-12-20T17:18:45;20.08;;;16.70;;
57217;SDS011;43078;52.972;6.482;2022-12-20T17:21:23;26.25;;;19.40;;
57217;SDS011;43078;52.972;6.482;2022-12-20T17:23:54;21.70;;;17.45;;
57217;SDS011;43078;52.972;6.482;2022-12-20T17:26:24;24.02;;;17.95;;
57217;SDS011;43078;52.972;6.482;2022-12-20T17:28:51;25.10;;;19.30;;
57217;SDS011;43078;52.972;6.482;2022-12-20T17:33:46;23.52;;;18.77;;
57217;SDS011;43078;52.972;6.482;2022-12-20T17:36:11;22.58;;;18.40;;
57217;SDS011;43078;52.972;6.482;2022-12-20T17:38:37;23.17;;;18.90;;
57217;SDS011;43078;52.972;6.482;2022-12-20T17:41:03;26.80;;;20.05;;
57217;SDS011;43078;52.972;6.482;2022-12-20T17:43:28;27.17;;;19.58;;
57217;SDS011;43078;52.972;6.482;2022-12-20T17:45:54;20.20;;;17.95;;
57217;SDS011;43078;52.972;6.482;2022-12-20T17:48:19;31.85;;;21.70;;
57217;SDS011;43078;52.972;6.482;2022-12-20T17:50:45;33.55;;;22.77;;
57217;SDS011;43078;52.972;6.482;2022-12-20T17:53:11;24.95;;;20.60;;
57217;SDS011;43078;52.972;6.482;2022-12-20T17:55:36;34.15;;;25.67;;
57217;SDS011;43078;52.972;6.482;2022-12-20T17:58:02;26.05;;;20.85;;